sensor_id;sensor_type;location;lat;lon;timestamp;pressure;altitude;pressure_sealevel;temperature;humidity
48517;BME280;34310;51.904;4.256;2023-10-19T00:00:38;99203.34;;;17.49;62.70
48517;BME280;34310;51.904;4.256;2023-10-19T00:03:05;99191.06;;;17.42;62.76
48517;BME280;34310;51.904;4.256;2023-10-19T00:05:35;99207.75;;;17.51;62.67
48517;BME280;34310;51.904;4.256;2023-10-19T00:08:03;99208.59;;;17.50;62.55
48517;BME280;34310;51.904;4.256;2023-10-19T00:10:30;99209.47;;;17.51;62.80
48517;BME280;34310;51.904;4.256;2023-10-19T00:12:56;99219.03;;;17.50;62.56
48517;BME280;34310;51.904;4.256;2023-10-19T00:15:23;99215.56;;;17.50;62.69
48517;BME280;34310;51.904;4.256;2023-10-19T00:17:49;99218.16;;;17.50;62.50
48517;BME280;34310;51.904;4.256;2023-10-19T00:20:16;99215.53;;;17.48;62.54
48517;BME280;34310;51.904;4.256;2023-10-19T00:22:42;99201.63;;;17.49;62.72
48517;BME280;34310;51.904;4.256;2023-10-19T00:25:09;99207.72;;;17.50;62.63
48517;BME280;34310;51.904;4.256;2023-10-19T00:27:36;99198.13;;;17.49;62.71
48517;BME280;34310;51.904;4.256;2023-10-19T00:30:02;99203.34;;;17.49;62.50
48517;BME280;34310;51.904;4.256;2023-10-19T00:32:29;99199.03;;;17.49;62.74
48517;BME280;34310;51.904;4.256;2023-10-19T00:34:56;99197.25;;;17.48;62.55
48517;BME280;34310;51.904;4.256;2023-10-19T00:37:22;99203.34;;;17.49;62.55
48517;BME280;34310;51.904;4.256;2023-10-19T00:39:49;99207.69;;;17.48;62.74
48517;BME280;34310;51.904;4.256;2023-10-19T00:42:15;99204.16;;;17.45;62.51
48517;BME280;34310;51.904;4.256;2023-10-19T00:44:42;99214.66;;;17.48;62.61
48517;BME280;34310;51.904;4.256;2023-10-19T00:47:08;99211.13;;;17.46;62.47
48517;BME280;34310;51.904;4.256;2023-10-19T00:49:35;99205.94;;;17.47;62.79
48517;BME280;34310;51.904;4.256;2023-10-19T00:52:01;99220.72;;;17.47;62.58
48517;BME280;34310;51.904;4.256;2023-10-19T00:54:31;99205.03;;;17.45;62.62
48517;BME280;34310;51.904;4.256;2023-10-19T00:57:00;99203.22;;;17.40;62.60
48517;BME280;34310;51.904;4.256;2023-10-19T00:59:27;99205.03;;;17.45;62.63
48517;BME280;34310;51.904;4.256;2023-10-19T01:01:54;99219.00;;;17.47;62.92
48517;BME280;34310;51.904;4.256;2023-10-19T01:04:22;99208.47;;;17.43;62.63
48517;BME280;34310;51.904;4.256;2023-10-19T01:06:49;99218.13;;;17.47;63.02
48517;BME280;34310;51.904;4.256;2023-10-19T01:09:16;99218.13;;;17.48;62.88
48517;BME280;34310;51.904;4.256;2023-10-19T01:11:42;99214.59;;;17.45;63.07
48517;BME280;34310;51.904;4.256;2023-10-19T01:14:19;99184.78;;;17.30;62.75
48517;BME280;34310;51.904;4.256;2023-10-19T01:16:46;99221.59;;;17.47;62.98
48517;BME280;34310;51.904;4.256;2023-10-19T01:19:13;99212.91;;;17.47;62.81
48517;BME280;34310;51.904;4.256;2023-10-19T01:21:39;99203.34;;;17.47;62.94
48517;BME280;34310;51.904;4.256;2023-10-19T01:24:07;99205.03;;;17.45;62.77
48517;BME280;34310;51.904;4.256;2023-10-19T01:26:34;99187.50;;;17.37;62.85
48517;BME280;34310;51.904;4.256;2023-10-19T01:29:00;99205.06;;;17.47;62.87
48517;BME280;34310;51.904;4.256;2023-10-19T01:31:27;99198.03;;;17.41;62.88
48517;BME280;34310;51.904;4.256;2023-10-19T01:33:54;99208.56;;;17.47;62.94
48517;BME280;34310;51.904;4.256;2023-10-19T01:36:22;99194.50;;;17.39;62.91
48517;BME280;34310;51.904;4.256;2023-10-19T01:38:49;99201.56;;;17.45;62.74
48517;BME280;34310;51.904;4.256;2023-10-19T01:41:16;99212.00;;;17.45;62.90
48517;BME280;34310;51.904;4.256;2023-10-19T01:43:43;99203.28;;;17.44;62.81
48517;BME280;34310;51.904;4.256;2023-10-19T01:46:11;99206.78;;;17.46;62.74
48517;BME280;34310;51.904;4.256;2023-10-19T01:48:42;99205.06;;;17.47;62.92
48517;BME280;34310;51.904;4.256;2023-10-19T01:51:10;99203.31;;;17.46;62.78
48517;BME280;34310;51.904;4.256;2023-10-19T01:53:37;99198.97;;;17.46;62.83
48517;BME280;34310;51.904;4.256;2023-10-19T01:56:04;99200.69;;;17.46;62.82
48517;BME280;34310;51.904;4.256;2023-10-19T01:58:31;99199.78;;;17.44;62.86
48517;BME280;34310;51.904;4.256;2023-10-19T02:00:58;99200.69;;;17.46;62.69
48517;BME280;34310;51.904;4.256;2023-10-19T02:03:24;99199.81;;;17.45;62.81
48517;BME280;34310;51.904;4.256;2023-10-19T02:05:58;99196.34;;;17.46;62.81
48517;BME280;34310;51.904;4.256;2023-10-19T02:08:28;99205.91;;;17.46;62.93
48517;BME280;34310;51.904;4.256;2023-10-19T02:10:55;99192.88;;;17.46;62.92
48517;BME280;34310;51.904;4.256;2023-10-19T02:13:22;99190.22;;;17.43;62.77
48517;BME280;34310;51.904;4.256;2023-10-19T02:15:48;99184.06;;;17.39;63.03
48517;BME280;34310;51.904;4.256;2023-10-19T02:18:15;99174.47;;;17.37;62.84
48517;BME280;34310;51.904;4.256;2023-10-19T02:20:41;99195.47;;;17.46;63.00
48517;BME280;34310;51.904;4.256;2023-10-19T02:23:07;99186.81;;;17.47;62.91
48517;BME280;34310;51.904;4.256;2023-10-19T02:25:34;99191.13;;;17.46;62.97
48517;BME280;34310;51.904;4.256;2023-10-19T02:28:00;99186.78;;;17.45;62.86
48517;BME280;34310;51.904;4.256;2023-10-19T02:30:28;99196.34;;;17.46;62.84
48517;BME280;34310;51.904;4.256;2023-10-19T02:32:55;99192.88;;;17.46;62.97
48517;BME280;34310;51.904;4.256;2023-10-19T02:35:21;99178.94;;;17.44;63.14
48517;BME280;34310;51.904;4.256;2023-10-19T02:37:47;99185.88;;;17.43;63.04
48517;BME280;34310;51.904;4.256;2023-10-19T02:40:14;99189.38;;;17.45;63.03
48517;BME280;34310;51.904;4.256;2023-10-19T02:42:43;99164.88;;;17.36;62.83
48517;BME280;34310;51.904;4.256;2023-10-19T02:45:10;99177.16;;;17.43;63.08
48517;BME280;34310;51.904;4.256;2023-10-19T02:47:36;99177.19;;;17.44;63.02
48517;BME280;34310;51.904;4.256;2023-10-19T02:50:03;99192.00;;;17.45;63.02
48517;BME280;34310;51.904;4.256;2023-10-19T02:52:30;99176.28;;;17.41;62.89
48517;BME280;34310;51.904;4.256;2023-10-19T02:54:57;99172.84;;;17.43;63.17
48517;BME280;34310;51.904;4.256;2023-10-19T02:57:23;99182.44;;;17.46;63.18
48517;BME280;34310;51.904;4.256;2023-10-19T02:59:49;99163.19;;;17.39;63.03
48517;BME280;34310;51.904;4.256;2023-10-19T03:02:16;99172.00;;;17.46;63.24
48517;BME280;34310;51.904;4.256;2023-10-19T03:04:42;99176.34;;;17.45;63.16
48517;BME280;34310;51.904;4.256;2023-10-19T03:07:09;99181.59;;;17.47;62.99
48517;BME280;34310;51.904;4.256;2023-10-19T03:09:36;99168.50;;;17.45;62.97
48517;BME280;34310;51.904;4.256;2023-10-19T03:12:03;99172.00;;;17.46;63.01
48517;BME280;34310;51.904;4.256;2023-10-19T03:14:33;99166.78;;;17.46;63.30
48517;BME280;34310;51.904;4.256;2023-10-19T03:17:00;99155.47;;;17.45;63.11
48517;BME280;34310;51.904;4.256;2023-10-19T03:19:27;99165.06;;;17.46;62.98
48517;BME280;34310;51.904;4.256;2023-10-19T03:21:54;99155.47;;;17.45;63.08
48517;BME280;34310;51.904;4.256;2023-10-19T03:24:22;99148.44;;;17.41;63.09
48517;BME280;34310;51.904;4.256;2023-10-19T03:26:51;99151.09;;;17.43;63.00
48517;BME280;34310;51.904;4.256;2023-10-19T03:29:18;99149.28;;;17.39;63.12
48517;BME280;34310;51.904;4.256;2023-10-19T03:31:45;99165.91;;;17.45;63.05
48517;BME280;34310;51.904;4.256;2023-10-19T03:34:12;99164.19;;;17.46;63.02
48517;BME280;34310;51.904;4.256;2023-10-19T03:36:39;99158.97;;;17.46;63.10
48517;BME280;34310;51.904;4.256;2023-10-19T03:39:06;99160.72;;;17.47;63.29
48517;BME280;34310;51.904;4.256;2023-10-19T03:41:32;99149.28;;;17.39;63.17
48517;BME280;34310;51.904;4.256;2023-10-19T03:43:59;99159.84;;;17.46;63.00
48517;BME280;34310;51.904;4.256;2023-10-19T03:46:25;99149.31;;;17.42;63.12
48517;BME280;34310;51.904;4.256;2023-10-19T03:48:52;99163.28;;;17.45;63.09
48517;BME280;34310;51.904;4.256;2023-10-19T03:51:18;99158.94;;;17.44;63.19
48517;BME280;34310;51.904;4.256;2023-10-19T03:53:45;99166.78;;;17.46;63.18
48517;BME280;34310;51.904;4.256;2023-10-19T03:56:11;99166.78;;;17.46;63.23
48517;BME280;34310;51.904;4.256;2023-10-19T03:58:38;99163.28;;;17.44;63.17
48517;BME280;34310;51.904;4.256;2023-10-19T04:01:04;99168.50;;;17.45;63.02
48517;BME280;34310;51.904;4.256;2023-10-19T04:03:31;99170.25;;;17.45;63.23
48517;BME280;34310;51.904;4.256;2023-10-19T04:05:58;99161.47;;;17.40;63.12
48517;BME280;34310;51.904;4.256;2023-10-19T04:08:24;99174.59;;;17.46;63.16
48517;BME280;34310;51.904;4.256;2023-10-19T04:10:50;99167.63;;;17.43;63.15
48517;BME280;34310;51.904;4.256;2023-10-19T04:13:17;99154.53;;;17.40;63.20
48517;BME280;34310;51.904;4.256;2023-10-19T04:15:43;99159.72;;;17.39;63.25
48517;BME280;34310;51.904;4.256;2023-10-19T04:18:10;99165.91;;;17.45;63.07
48517;BME280;34310;51.904;4.256;2023-10-19T04:20:38;99159.72;;;17.39;63.30
48517;BME280;34310;51.904;4.256;2023-10-19T04:23:05;99159.72;;;17.39;63.36
48517;BME280;34310;51.904;4.256;2023-10-19T04:25:31;99173.72;;;17.44;63.18
48517;BME280;34310;51.904;4.256;2023-10-19T04:27:58;99173.72;;;17.45;63.29
48517;BME280;34310;51.904;4.256;2023-10-19T04:30:24;99181.56;;;17.45;63.35
48517;BME280;34310;51.904;4.256;2023-10-19T04:32:51;99171.97;;;17.44;63.09
48517;BME280;34310;51.904;4.256;2023-10-19T04:35:19;99175.44;;;17.43;63.16
48517;BME280;34310;51.904;4.256;2023-10-19T04:37:45;99178.94;;;17.44;63.25
48517;BME280;34310;51.904;4.256;2023-10-19T04:40:12;99161.44;;;17.38;63.06
48517;BME280;34310;51.904;4.256;2023-10-19T04:42:38;99155.28;;;17.34;63.15
48517;BME280;34310;51.904;4.256;2023-10-19T04:45:05;99171.09;;;17.44;63.22
48517;BME280;34310;51.904;4.256;2023-10-19T04:47:33;99178.94;;;17.44;63.19
48517;BME280;34310;51.904;4.256;2023-10-19T04:50:00;99180.69;;;17.45;63.08
48517;BME280;34310;51.904;4.256;2023-10-19T04:52:26;99157.97;;;17.38;63.26
48517;BME280;34310;51.904;4.256;2023-10-19T04:54:53;99172.84;;;17.45;63.25
48517;BME280;34310;51.904;4.256;2023-10-19T04:57:20;99175.44;;;17.43;63.25
48517;BME280;34310;51.904;4.256;2023-10-19T04:59:47;99170.19;;;17.42;63.11
48517;BME280;34310;51.904;4.256;2023-10-19T05:02:14;99179.81;;;17.44;63.10
48517;BME280;34310;51.904;4.256;2023-10-19T05:04:40;99186.75;;;17.44;63.29
48517;BME280;34310;51.904;4.256;2023-10-19T05:07:07;99185.00;;;17.43;63.12
48517;BME280;34310;51.904;4.256;2023-10-19T05:09:33;99186.75;;;17.44;63.18
48517;BME280;34310;51.904;4.256;2023-10-19T05:12:00;99187.63;;;17.44;63.26
48517;BME280;34310;51.904;4.256;2023-10-19T05:14:26;99184.03;;;17.38;63.21
48517;BME280;34310;51.904;4.256;2023-10-19T05:16:53;99187.63;;;17.44;63.29
48517;BME280;34310;51.904;4.256;2023-10-19T05:19:19;99175.44;;;17.43;63.40
48517;BME280;34310;51.904;4.256;2023-10-19T05:21:46;99179.81;;;17.44;63.32
48517;BME280;34310;51.904;4.256;2023-10-19T05:24:12;99161.47;;;17.40;63.54
48517;BME280;34310;51.904;4.256;2023-10-19T05:26:39;99173.72;;;17.44;63.18
48517;BME280;34310;51.904;4.256;2023-10-19T05:29:05;99157.13;;;17.40;63.23
48517;BME280;34310;51.904;4.256;2023-10-19T05:31:32;99162.31;;;17.37;63.30
48517;BME280;34310;51.904;4.256;2023-10-19T05:33:58;99170.25;;;17.45;63.30
48517;BME280;34310;51.904;4.256;2023-10-19T05:36:25;99164.16;;;17.44;63.23
48517;BME280;34310;51.904;4.256;2023-10-19T05:38:51;99160.66;;;17.44;63.42
48517;BME280;34310;51.904;4.256;2023-10-19T05:41:18;99157.97;;;17.39;63.19
48517;BME280;34310;51.904;4.256;2023-10-19T05:43:44;99170.25;;;17.45;63.35
48517;BME280;34310;51.904;4.256;2023-10-19T05:46:11;99174.56;;;17.43;63.20
48517;BME280;34310;51.904;4.256;2023-10-19T05:48:37;99158.81;;;17.37;63.33
48517;BME280;34310;51.904;4.256;2023-10-19T05:51:04;99178.94;;;17.44;63.35
48517;BME280;34310;51.904;4.256;2023-10-19T05:53:30;99164.16;;;17.44;63.29
48517;BME280;34310;51.904;4.256;2023-10-19T05:55:56;99169.38;;;17.44;63.38
48517;BME280;34310;51.904;4.256;2023-10-19T05:58:23;99159.72;;;17.39;63.17
48517;BME280;34310;51.904;4.256;2023-10-19T06:00:50;99175.47;;;17.45;63.29
48517;BME280;34310;51.904;4.256;2023-10-19T06:03:16;99173.72;;;17.44;63.31
48517;BME280;34310;51.904;4.256;2023-10-19T06:05:42;99177.16;;;17.43;63.27
48517;BME280;34310;51.904;4.256;2023-10-19T06:08:09;99171.00;;;17.38;63.24
48517;BME280;34310;51.904;4.256;2023-10-19T06:10:35;99168.38;;;17.36;63.18
48517;BME280;34310;51.904;4.256;2023-10-19T06:13:02;99171.06;;;17.41;63.42
48517;BME280;34310;51.904;4.256;2023-10-19T06:15:29;99189.38;;;17.44;63.50
48517;BME280;34310;51.904;4.256;2023-10-19T06:17:55;99178.03;;;17.43;63.28
48517;BME280;34310;51.904;4.256;2023-10-19T06:20:22;99181.44;;;17.38;63.14
48517;BME280;34310;51.904;4.256;2023-10-19T06:22:52;99200.69;;;17.44;63.23
48517;BME280;34310;51.904;4.256;2023-10-19T06:25:21;99209.34;;;17.43;63.43
48517;BME280;34310;51.904;4.256;2023-10-19T06:27:48;99206.72;;;17.42;63.59
48517;BME280;34310;51.904;4.256;2023-10-19T06:30:16;99204.94;;;17.39;63.46
48517;BME280;34310;51.904;4.256;2023-10-19T06:32:45;99210.22;;;17.42;63.32
48517;BME280;34310;51.904;4.256;2023-10-19T06:35:12;99223.28;;;17.44;63.18
48517;BME280;34310;51.904;4.256;2023-10-19T06:37:38;99216.34;;;17.44;63.44
48517;BME280;34310;51.904;4.256;2023-10-19T06:40:05;99209.34;;;17.42;63.19
48517;BME280;34310;51.904;4.256;2023-10-19T06:42:32;99213.72;;;17.44;63.17
48517;BME280;34310;51.904;4.256;2023-10-19T06:44:58;99209.34;;;17.43;63.20
48517;BME280;34310;51.904;4.256;2023-10-19T06:47:25;99224.16;;;17.44;63.18
48517;BME280;34310;51.904;4.256;2023-10-19T06:49:51;99218.06;;;17.44;63.14
48517;BME280;34310;51.904;4.256;2023-10-19T06:52:18;99212.84;;;17.44;63.39
48517;BME280;34310;51.904;4.256;2023-10-19T06:54:44;99211.06;;;17.41;63.30
48517;BME280;34310;51.904;4.256;2023-10-19T06:57:11;99211.13;;;17.44;63.44
48517;BME280;34310;51.904;4.256;2023-10-19T06:59:37;99201.56;;;17.45;63.29
48517;BME280;34310;51.904;4.256;2023-10-19T07:02:04;99221.53;;;17.44;63.33
48517;BME280;34310;51.904;4.256;2023-10-19T07:04:31;99219.78;;;17.43;63.49
48517;BME280;34310;51.904;4.256;2023-10-19T07:06:58;99211.94;;;17.42;63.52
48517;BME280;34310;51.904;4.256;2023-10-19T07:09:24;99223.28;;;17.44;63.29
48517;BME280;34310;51.904;4.256;2023-10-19T07:11:51;99220.69;;;17.45;63.32
48517;BME280;34310;51.904;4.256;2023-10-19T07:14:17;99217.22;;;17.45;63.46
48517;BME280;34310;51.904;4.256;2023-10-19T07:16:44;99218.97;;;17.46;63.47
48517;BME280;34310;51.904;4.256;2023-10-19T07:19:10;99201.47;;;17.39;63.30
48517;BME280;34310;51.904;4.256;2023-10-19T07:21:37;99218.09;;;17.45;63.29
48517;BME280;34310;51.904;4.256;2023-10-19T07:24:04;99218.09;;;17.45;63.40
48517;BME280;34310;51.904;4.256;2023-10-19T07:26:31;99223.31;;;17.45;63.47
48517;BME280;34310;51.904;4.256;2023-10-19T07:28:58;99224.19;;;17.46;63.53
48517;BME280;34310;51.904;4.256;2023-10-19T07:31:24;99228.53;;;17.45;63.50
48517;BME280;34310;51.904;4.256;2023-10-19T07:33:51;99230.28;;;17.46;63.40
48517;BME280;34310;51.904;4.256;2023-10-19T07:36:17;99232.88;;;17.46;63.63
48517;BME280;34310;51.904;4.256;2023-10-19T07:38:44;99224.16;;;17.44;63.48
48517;BME280;34310;51.904;4.256;2023-10-19T07:41:10;99223.22;;;17.39;63.76
48517;BME280;34310;51.904;4.256;2023-10-19T07:43:37;99226.78;;;17.46;63.41
48517;BME280;34310;51.904;4.256;2023-10-19T07:46:03;99228.53;;;17.47;63.63
48517;BME280;34310;51.904;4.256;2023-10-19T07:48:30;99219.81;;;17.45;63.52
48517;BME280;34310;51.904;4.256;2023-10-19T07:50:56;99218.97;;;17.46;63.55
48517;BME280;34310;51.904;4.256;2023-10-19T07:53:23;99221.53;;;17.44;63.53
48517;BME280;34310;51.904;4.256;2023-10-19T07:55:49;99231.19;;;17.48;63.51
48517;BME280;34310;51.904;4.256;2023-10-19T07:58:16;99218.91;;;17.43;63.60
48517;BME280;34310;51.904;4.256;2023-10-19T08:00:42;99223.34;;;17.48;63.78
48517;BME280;34310;51.904;4.256;2023-10-19T08:03:10;99203.22;;;17.40;63.79
48517;BME280;34310;51.904;4.256;2023-10-19T08:05:36;99224.22;;;17.47;63.78
48517;BME280;34310;51.904;4.256;2023-10-19T08:08:03;99224.22;;;17.49;63.71
48517;BME280;34310;51.904;4.256;2023-10-19T08:10:30;99214.66;;;17.48;63.67
48517;BME280;34310;51.904;4.256;2023-10-19T08:12:56;99163.81;;;17.24;63.59
48517;BME280;34310;51.904;4.256;2023-10-19T08:15:23;99206.00;;;17.50;64.04
48517;BME280;34310;51.904;4.256;2023-10-19T08:17:51;99221.66;;;17.50;64.03
48517;BME280;34310;51.904;4.256;2023-10-19T08:20:18;99219.03;;;17.50;63.90
48517;BME280;34310;51.904;4.256;2023-10-19T08:22:45;99206.78;;;17.46;63.93
48517;BME280;34310;51.904;4.256;2023-10-19T08:25:11;99199.81;;;17.45;63.82
48517;BME280;34310;51.904;4.256;2023-10-19T08:27:38;99216.44;;;17.52;63.88
48517;BME280;34310;51.904;4.256;2023-10-19T08:30:06;99199.81;;;17.45;63.90
48517;BME280;34310;51.904;4.256;2023-10-19T08:32:33;99213.88;;;17.53;64.00
48517;BME280;34310;51.904;4.256;2023-10-19T08:34:59;99213.84;;;17.52;64.01
48517;BME280;34310;51.904;4.256;2023-10-19T08:37:26;99207.78;;;17.53;64.02
48517;BME280;34310;51.904;4.256;2023-10-19T08:39:53;99206.03;;;17.53;64.01
48517;BME280;34310;51.904;4.256;2023-10-19T08:42:20;99211.25;;;17.53;64.04
48517;BME280;34310;51.904;4.256;2023-10-19T08:44:46;99209.53;;;17.54;63.88
48517;BME280;34310;51.904;4.256;2023-10-19T08:47:13;99201.66;;;17.51;64.00
48517;BME280;34310;51.904;4.256;2023-10-19T08:49:41;99207.78;;;17.53;64.08
48517;BME280;34310;51.904;4.256;2023-10-19T08:52:08;99211.28;;;17.55;63.81
48517;BME280;34310;51.904;4.256;2023-10-19T08:54:35;99199.06;;;17.52;63.97
48517;BME280;34310;51.904;4.256;2023-10-19T08:57:02;99197.34;;;17.54;64.22
48517;BME280;34310;51.904;4.256;2023-10-19T08:59:28;99195.66;;;17.56;64.05
48517;BME280;34310;51.904;4.256;2023-10-19T09:02:02;99195.66;;;17.56;64.14
48517;BME280;34310;51.904;4.256;2023-10-19T09:04:29;99202.63;;;17.57;64.01
48517;BME280;34310;51.904;4.256;2023-10-19T09:06:56;99196.50;;;17.55;64.14
48517;BME280;34310;51.904;4.256;2023-10-19T09:09:23;99194.78;;;17.56;64.11
48517;BME280;34310;51.904;4.256;2023-10-19T09:11:49;99186.97;;;17.57;64.14
48517;BME280;34310;51.904;4.256;2023-10-19T09:14:30;99179.16;;;17.59;64.04
48517;BME280;34310;51.904;4.256;2023-10-19T09:16:57;99175.66;;;17.57;64.07
48517;BME280;34310;51.904;4.256;2023-10-19T09:22:02;99170.47;;;17.58;64.16
48517;BME280;34310;51.904;4.256;2023-10-19T09:24:29;99177.44;;;17.61;64.29
48517;BME280;34310;51.904;4.256;2023-10-19T09:26:58;99170.50;;;17.61;64.34
48517;BME280;34310;51.904;4.256;2023-10-19T09:29:24;99165.16;;;17.54;64.16
48517;BME280;34310;51.904;4.256;2023-10-19T09:31:51;99172.16;;;17.56;64.16
48517;BME280;34310;51.904;4.256;2023-10-19T09:34:19;99159.09;;;17.55;64.22
48517;BME280;34310;51.904;4.256;2023-10-19T09:36:46;99171.34;;;17.59;63.96
48517;BME280;34310;51.904;4.256;2023-10-19T09:39:13;99177.47;;;17.62;64.17
48517;BME280;34310;51.904;4.256;2023-10-19T09:41:40;99183.56;;;17.63;64.15
48517;BME280;34310;51.904;4.256;2023-10-19T09:44:09;99185.34;;;17.64;64.07
48517;BME280;34310;51.904;4.256;2023-10-19T09:46:37;99181.84;;;17.63;64.08
48517;BME280;34310;51.904;4.256;2023-10-19T09:49:05;99174.91;;;17.64;64.06
48517;BME280;34310;51.904;4.256;2023-10-19T09:51:32;99160.88;;;17.57;64.14
48517;BME280;34310;51.904;4.256;2023-10-19T09:54:14;99173.03;;;17.57;64.04
48517;BME280;34310;51.904;4.256;2023-10-19T09:56:48;99188.00;;;17.65;64.25
48517;BME280;34310;51.904;4.256;2023-10-19T09:59:29;99184.53;;;17.67;64.28
48517;BME280;34310;51.904;4.256;2023-10-19T10:02:13;99170.59;;;17.66;63.92
48517;BME280;34310;51.904;4.256;2023-10-19T10:04:41;99172.38;;;17.67;64.17
48517;BME280;34310;51.904;4.256;2023-10-19T10:07:09;99160.16;;;17.66;64.21
48517;BME280;34310;51.904;4.256;2023-10-19T10:09:41;99159.34;;;17.67;64.06
48517;BME280;34310;51.904;4.256;2023-10-19T10:12:17;99168.94;;;17.68;64.17
48517;BME280;34310;51.904;4.256;2023-10-19T10:15:13;99181.13;;;17.69;63.93
48517;BME280;34310;51.904;4.256;2023-10-19T10:17:39;99178.50;;;17.69;63.99
48517;BME280;34310;51.904;4.256;2023-10-19T10:22:39;99177.66;;;17.70;64.23
48517;BME280;34310;51.904;4.256;2023-10-19T10:25:06;99161.03;;;17.65;64.09
48517;BME280;34310;51.904;4.256;2023-10-19T10:27:49;99169.81;;;17.70;64.08
48517;BME280;34310;51.904;4.256;2023-10-19T10:30:17;99177.69;;;17.72;64.01
48517;BME280;34310;51.904;4.256;2023-10-19T10:32:44;99187.25;;;17.73;63.92
48517;BME280;34310;51.904;4.256;2023-10-19T10:38:04;99174.19;;;17.71;64.01
48517;BME280;34310;51.904;4.256;2023-10-19T10:40:42;99166.38;;;17.73;63.88
48517;BME280;34310;51.904;4.256;2023-10-19T10:43:08;99162.91;;;17.74;64.24
48517;BME280;34310;51.904;4.256;2023-10-19T10:45:35;99172.50;;;17.75;63.97
48517;BME280;34310;51.904;4.256;2023-10-19T10:48:01;99177.69;;;17.73;64.00
48517;BME280;34310;51.904;4.256;2023-10-19T10:50:28;99178.63;;;17.77;63.92
48517;BME280;34310;51.904;4.256;2023-10-19T10:52:55;99169.88;;;17.75;63.83
48517;BME280;34310;51.904;4.256;2023-10-19T10:55:23;99166.44;;;17.76;63.96
48517;BME280;34310;51.904;4.256;2023-10-19T10:57:50;99165.53;;;17.74;64.12
48517;BME280;34310;51.904;4.256;2023-10-19T11:00:18;99146.34;;;17.70;63.93
48517;BME280;34310;51.904;4.256;2023-10-19T11:02:47;99151.66;;;17.78;63.88
48517;BME280;34310;51.904;4.256;2023-10-19T11:05:15;99138.53;;;17.72;63.97
48517;BME280;34310;51.904;4.256;2023-10-19T11:10:36;99130.72;;;17.73;63.74
48517;BME280;34310;51.904;4.256;2023-10-19T11:13:04;99129.84;;;17.74;63.71
48517;BME280;34310;51.904;4.256;2023-10-19T11:15:32;99131.69;;;17.80;64.05
48517;BME280;34310;51.904;4.256;2023-10-19T11:17:59;99121.16;;;17.74;63.88
48517;BME280;34310;51.904;4.256;2023-10-19T11:20:26;99131.69;;;17.81;63.77
48517;BME280;34310;51.904;4.256;2023-10-19T11:22:53;99127.34;;;17.82;63.99
48517;BME280;34310;51.904;4.256;2023-10-19T11:25:21;99123.88;;;17.81;63.92
48517;BME280;34310;51.904;4.256;2023-10-19T11:27:48;99126.50;;;17.83;63.94
48517;BME280;34310;51.904;4.256;2023-10-19T11:30:23;99123.00;;;17.81;63.91
48517;BME280;34310;51.904;4.256;2023-10-19T11:32:50;99114.25;;;17.77;63.77
48517;BME280;34310;51.904;4.256;2023-10-19T11:35:17;99109.03;;;17.77;63.96
48517;BME280;34310;51.904;4.256;2023-10-19T11:37:50;99119.56;;;17.85;63.79
48517;BME280;34310;51.904;4.256;2023-10-19T11:40:17;99109.09;;;17.83;63.87
48517;BME280;34310;51.904;4.256;2023-10-19T11:42:43;99115.22;;;17.85;63.92
48517;BME280;34310;51.904;4.256;2023-10-19T11:45:10;99112.59;;;17.85;63.80
48517;BME280;34310;51.904;4.256;2023-10-19T11:47:36;99105.66;;;17.86;63.63
48517;BME280;34310;51.904;4.256;2023-10-19T11:50:04;99103.03;;;17.86;63.76
48517;BME280;34310;51.904;4.256;2023-10-19T11:52:31;99108.28;;;17.87;63.88
48517;BME280;34310;51.904;4.256;2023-10-19T11:54:57;99103.06;;;17.87;63.62
48517;BME280;34310;51.904;4.256;2023-10-19T11:57:24;99100.44;;;17.87;63.79
48517;BME280;34310;51.904;4.256;2023-10-19T11:59:51;99095.22;;;17.87;63.73
48517;BME280;34310;51.904;4.256;2023-10-19T12:02:22;99089.13;;;17.87;63.62
48517;BME280;34310;51.904;4.256;2023-10-19T12:04:48;99088.28;;;17.89;64.00
48517;BME280;34310;51.904;4.256;2023-10-19T12:07:15;99083.94;;;17.88;63.58
48517;BME280;34310;51.904;4.256;2023-10-19T12:09:41;99081.34;;;17.90;63.59
48517;BME280;34310;51.904;4.256;2023-10-19T12:12:08;99078.72;;;17.88;63.67
48517;BME280;34310;51.904;4.256;2023-10-19T12:14:36;99067.31;;;17.83;63.74
48517;BME280;34310;51.904;4.256;2023-10-19T12:17:02;99077.88;;;17.91;63.89
48517;BME280;34310;51.904;4.256;2023-10-19T12:19:29;99083.94;;;17.88;63.56
48517;BME280;34310;51.904;4.256;2023-10-19T12:21:57;99087.44;;;17.92;63.82
48517;BME280;34310;51.904;4.256;2023-10-19T12:24:23;99077.00;;;17.92;63.70
48517;BME280;34310;51.904;4.256;2023-10-19T12:26:50;99074.38;;;17.90;63.59
48517;BME280;34310;51.904;4.256;2023-10-19T12:29:16;99068.31;;;17.91;63.82
48517;BME280;34310;51.904;4.256;2023-10-19T12:31:43;99068.34;;;17.93;63.60
48517;BME280;34310;51.904;4.256;2023-10-19T12:34:09;99052.59;;;17.87;63.67
48517;BME280;34310;51.904;4.256;2023-10-19T12:36:36;99043.00;;;17.86;63.71
48517;BME280;34310;51.904;4.256;2023-10-19T12:39:03;99051.69;;;17.86;63.60
48517;BME280;34310;51.904;4.256;2023-10-19T12:41:31;99075.31;;;17.94;63.74
48517;BME280;34310;51.904;4.256;2023-10-19T12:43:57;99069.25;;;17.95;63.74
48517;BME280;34310;51.904;4.256;2023-10-19T12:46:24;99067.50;;;17.94;63.83
48517;BME280;34310;51.904;4.256;2023-10-19T12:48:51;99057.94;;;17.94;63.59
48517;BME280;34310;51.904;4.256;2023-10-19T12:51:18;99064.03;;;17.95;63.63
48517;BME280;34310;51.904;4.256;2023-10-19T12:53:44;99055.28;;;17.93;63.72
48517;BME280;34310;51.904;4.256;2023-10-19T12:56:11;99050.94;;;17.93;63.53
48517;BME280;34310;51.904;4.256;2023-10-19T12:58:38;99055.34;;;17.96;63.70
48517;BME280;34310;51.904;4.256;2023-10-19T13:01:04;99042.25;;;17.94;63.71
48517;BME280;34310;51.904;4.256;2023-10-19T13:03:31;99054.47;;;17.95;63.74
48517;BME280;34310;51.904;4.256;2023-10-19T13:05:58;99045.75;;;17.95;63.71
48517;BME280;34310;51.904;4.256;2023-10-19T13:08:24;99040.53;;;17.95;63.45
48517;BME280;34310;51.904;4.256;2023-10-19T13:10:51;99029.13;;;17.91;63.57